sensor_id;sensor_type;location;lat;lon;timestamp;pressure;altitude;pressure_sealevel;temperature;humidity
27613;BME280;15036;48.094;-1.690;2023-05-14T00:01:43;101668.66;;;16.08;64.79
27613;BME280;15036;48.094;-1.690;2023-05-14T00:04:10;101661.66;;;15.80;65.69
27613;BME280;15036;48.094;-1.690;2023-05-14T00:06:36;101660.63;;;15.94;65.59
27613;BME280;15036;48.094;-1.690;2023-05-14T00:09:01;101653.19;;;16.07;65.46
27613;BME280;15036;48.094;-1.690;2023-05-14T00:11:28;101651.25;;;16.34;64.45
27613;BME280;15036;48.094;-1.690;2023-05-14T00:13:54;101651.22;;;16.47;63.69
27613;BME280;15036;48.094;-1.690;2023-05-14T00:16:20;101646.59;;;16.28;64.31
27613;BME280;15036;48.094;-1.690;2023-05-14T00:18:47;101648.50;;;16.27;64.84
27613;BME280;15036;48.094;-1.690;2023-05-14T00:21:13;101649.72;;;16.44;63.76
27613;BME280;15036;48.094;-1.690;2023-05-14T00:23:38;101641.53;;;16.05;64.96
27613;BME280;15036;48.094;-1.690;2023-05-14T00:26:04;101632.50;;;16.75;62.89
27613;BME280;15036;48.094;-1.690;2023-05-14T00:28:29;101634.81;;;16.78;62.82
27613;BME280;15036;48.094;-1.690;2023-05-14T00:30:54;101641.34;;;16.90;62.35
27613;BME280;15036;48.094;-1.690;2023-05-14T00:33:21;101635.34;;;16.56;63.14
27613;BME280;15036;48.094;-1.690;2023-05-14T00:35:47;101639.06;;;16.81;62.64
27613;BME280;15036;48.094;-1.690;2023-05-14T00:38:14;101634.72;;;16.27;64.11
27613;BME280;15036;48.094;-1.690;2023-05-14T00:40:45;101626.31;;;16.80;62.72
27613;BME280;15036;48.094;-1.690;2023-05-14T00:43:18;101627.88;;;16.63;62.88
27613;BME280;15036;48.094;-1.690;2023-05-14T00:45:44;101632.13;;;16.65;63.08
27613;BME280;15036;48.094;-1.690;2023-05-14T00:48:10;101621.81;;;16.21;64.66
27613;BME280;15036;48.094;-1.690;2023-05-14T00:50:36;101630.03;;;16.41;64.32
27613;BME280;15036;48.094;-1.690;2023-05-14T00:53:02;101625.31;;;16.48;64.01
27613;BME280;15036;48.094;-1.690;2023-05-14T00:55:29;101628.81;;;16.17;65.12
27613;BME280;15036;48.094;-1.690;2023-05-14T00:57:55;101626.84;;;16.57;64.18
27613;BME280;15036;48.094;-1.690;2023-05-14T01:00:21;101621.94;;;16.66;63.96
27613;BME280;15036;48.094;-1.690;2023-05-14T01:02:47;101624.75;;;16.26;64.45
27613;BME280;15036;48.094;-1.690;2023-05-14T01:05:12;101625.75;;;16.65;64.32
27613;BME280;15036;48.094;-1.690;2023-05-14T01:10:32;101630.88;;;16.35;65.12
27613;BME280;15036;48.094;-1.690;2023-05-14T01:15:47;101609.50;;;16.94;63.22
27613;BME280;15036;48.094;-1.690;2023-05-14T01:18:17;101611.09;;;17.15;62.04
27613;BME280;15036;48.094;-1.690;2023-05-14T01:20:48;101618.78;;;17.38;61.44
27613;BME280;15036;48.094;-1.690;2023-05-14T01:23:13;101624.91;;;16.44;64.58
27613;BME280;15036;48.094;-1.690;2023-05-14T01:25:39;101611.69;;;16.79;63.37
27613;BME280;15036;48.094;-1.690;2023-05-14T01:28:10;101621.13;;;16.39;65.12
27613;BME280;15036;48.094;-1.690;2023-05-14T01:31:00;101616.53;;;16.07;65.98
27613;BME280;15036;48.094;-1.690;2023-05-14T01:33:32;101622.00;;;16.33;65.16
27613;BME280;15036;48.094;-1.690;2023-05-14T01:35:57;101621.22;;;16.00;66.18
27613;BME280;15036;48.094;-1.690;2023-05-14T01:38:24;101632.44;;;15.92;66.42
27613;BME280;15036;48.094;-1.690;2023-05-14T01:40:52;101626.50;;;16.08;65.98
27613;BME280;15036;48.094;-1.690;2023-05-14T01:43:18;101625.75;;;16.65;64.27
27613;BME280;15036;48.094;-1.690;2023-05-14T01:45:45;101615.59;;;16.45;65.16
27613;BME280;15036;48.094;-1.690;2023-05-14T01:48:10;101609.94;;;16.21;65.66
27613;BME280;15036;48.094;-1.690;2023-05-14T01:50:35;101616.69;;;16.38;65.23
27613;BME280;15036;48.094;-1.690;2023-05-14T01:53:01;101602.69;;;16.33;65.36
27613;BME280;15036;48.094;-1.690;2023-05-14T01:55:26;101603.91;;;16.63;64.58
27613;BME280;15036;48.094;-1.690;2023-05-14T01:57:52;101607.47;;;16.77;64.08
27613;BME280;15036;48.094;-1.690;2023-05-14T02:00:19;101612.81;;;16.65;64.81
27613;BME280;15036;48.094;-1.690;2023-05-14T02:02:44;101599.63;;;17.11;63.30
27613;BME280;15036;48.094;-1.690;2023-05-14T02:05:10;101601.44;;;16.35;65.18
27613;BME280;15036;48.094;-1.690;2023-05-14T02:07:35;101599.31;;;16.95;63.55
27613;BME280;15036;48.094;-1.690;2023-05-14T02:10:01;101604.63;;;16.90;63.61
27613;BME280;15036;48.094;-1.690;2023-05-14T02:12:26;101597.81;;;16.99;63.66
27613;BME280;15036;48.094;-1.690;2023-05-14T02:14:52;101604.53;;;16.65;64.29
27613;BME280;15036;48.094;-1.690;2023-05-14T02:17:17;101598.97;;;16.78;64.05
27613;BME280;15036;48.094;-1.690;2023-05-14T02:19:43;101597.72;;;17.43;62.41
27613;BME280;15036;48.094;-1.690;2023-05-14T02:22:08;101595.41;;;17.09;63.37
27613;BME280;15036;48.094;-1.690;2023-05-14T02:24:34;101604.72;;;17.14;63.08
27613;BME280;15036;48.094;-1.690;2023-05-14T02:26:59;101602.19;;;17.13;63.08
27613;BME280;15036;48.094;-1.690;2023-05-14T02:29:25;101594.22;;;17.29;62.79
27613;BME280;15036;48.094;-1.690;2023-05-14T02:31:55;101597.84;;;16.92;63.61
27613;BME280;15036;48.094;-1.690;2023-05-14T02:34:20;101604.22;;;16.93;63.61
27613;BME280;15036;48.094;-1.690;2023-05-14T02:36:46;101591.03;;;16.95;63.81
27613;BME280;15036;48.094;-1.690;2023-05-14T02:39:11;101587.13;;;17.09;63.01
27613;BME280;15036;48.094;-1.690;2023-05-14T02:41:37;101582.63;;;17.14;63.31
27613;BME280;15036;48.094;-1.690;2023-05-14T02:44:02;101590.03;;;17.20;62.36
27613;BME280;15036;48.094;-1.690;2023-05-14T02:46:29;101592.59;;;17.15;63.21
27613;BME280;15036;48.094;-1.690;2023-05-14T02:48:55;101579.63;;;17.78;60.99
27613;BME280;15036;48.094;-1.690;2023-05-14T02:51:20;101580.81;;;17.64;61.26
27613;BME280;15036;48.094;-1.690;2023-05-14T02:53:45;101593.13;;;17.37;61.91
27613;BME280;15036;48.094;-1.690;2023-05-14T02:56:11;101575.72;;;16.48;64.25
27613;BME280;15036;48.094;-1.690;2023-05-14T02:58:36;101577.69;;;17.61;61.09
27613;BME280;15036;48.094;-1.690;2023-05-14T03:01:02;101583.88;;;17.18;62.13
27613;BME280;15036;48.094;-1.690;2023-05-14T03:03:28;101583.00;;;17.24;62.09
27613;BME280;15036;48.094;-1.690;2023-05-14T03:05:54;101577.78;;;17.41;61.58
27613;BME280;15036;48.094;-1.690;2023-05-14T03:08:19;101575.94;;;17.35;61.76
27613;BME280;15036;48.094;-1.690;2023-05-14T03:10:45;101575.41;;;17.76;60.35
27613;BME280;15036;48.094;-1.690;2023-05-14T03:13:10;101571.81;;;18.18;58.65
27613;BME280;15036;48.094;-1.690;2023-05-14T03:15:35;101566.50;;;18.16;59.06
27613;BME280;15036;48.094;-1.690;2023-05-14T03:18:01;101572.50;;;17.08;61.60
27613;BME280;15036;48.094;-1.690;2023-05-14T03:20:26;101569.44;;;17.23;61.74
27613;BME280;15036;48.094;-1.690;2023-05-14T03:22:52;101579.78;;;16.96;62.55
27613;BME280;15036;48.094;-1.690;2023-05-14T03:25:18;101565.97;;;16.96;62.43
27613;BME280;15036;48.094;-1.690;2023-05-14T03:27:43;101559.56;;;17.33;61.40
27613;BME280;15036;48.094;-1.690;2023-05-14T03:30:09;101570.47;;;16.91;62.86
27613;BME280;15036;48.094;-1.690;2023-05-14T03:32:35;101566.31;;;17.13;62.26
27613;BME280;15036;48.094;-1.690;2023-05-14T03:35:01;101571.38;;;17.16;61.63
27613;BME280;15036;48.094;-1.690;2023-05-14T03:37:26;101561.97;;;17.23;62.02
27613;BME280;15036;48.094;-1.690;2023-05-14T03:39:52;101554.91;;;17.34;61.25
27613;BME280;15036;48.094;-1.690;2023-05-14T03:42:17;101559.75;;;17.07;62.06
27613;BME280;15036;48.094;-1.690;2023-05-14T03:44:43;101552.91;;;17.41;61.59
27613;BME280;15036;48.094;-1.690;2023-05-14T03:47:08;101549.16;;;17.35;61.65
27613;BME280;15036;48.094;-1.690;2023-05-14T03:49:33;101547.97;;;17.56;60.52
27613;BME280;15036;48.094;-1.690;2023-05-14T03:51:59;101543.00;;;17.09;61.84
27613;BME280;15036;48.094;-1.690;2023-05-14T03:54:25;101553.69;;;16.92;62.62
27613;BME280;15036;48.094;-1.690;2023-05-14T03:56:50;101547.44;;;16.72;63.59
27613;BME280;15036;48.094;-1.690;2023-05-14T03:59:16;101546.94;;;17.19;62.04
27613;BME280;15036;48.094;-1.690;2023-05-14T04:01:42;101557.53;;;17.22;61.89
27613;BME280;15036;48.094;-1.690;2023-05-14T04:04:08;101554.22;;;17.07;62.89
27613;BME280;15036;48.094;-1.690;2023-05-14T04:06:33;101545.69;;;17.15;62.88
27613;BME280;15036;48.094;-1.690;2023-05-14T04:08:59;101549.78;;;17.38;62.01
27613;BME280;15036;48.094;-1.690;2023-05-14T04:11:24;101554.66;;;17.35;61.79
27613;BME280;15036;48.094;-1.690;2023-05-14T04:13:49;101546.34;;;17.49;61.33
27613;BME280;15036;48.094;-1.690;2023-05-14T04:16:15;101547.41;;;17.41;61.71
27613;BME280;15036;48.094;-1.690;2023-05-14T04:18:40;101546.38;;;17.35;61.49
27613;BME280;15036;48.094;-1.690;2023-05-14T04:21:07;101550.66;;;17.31;61.66
27613;BME280;15036;48.094;-1.690;2023-05-14T04:23:32;101548.81;;;17.57;61.43
27613;BME280;15036;48.094;-1.690;2023-05-14T04:25:57;101551.22;;;17.71;61.18
27613;BME280;15036;48.094;-1.690;2023-05-14T04:28:24;101557.31;;;17.55;61.76
27613;BME280;15036;48.094;-1.690;2023-05-14T04:30:49;101564.22;;;17.08;62.74
27613;BME280;15036;48.094;-1.690;2023-05-14T04:33:15;101558.47;;;16.72;64.06
27613;BME280;15036;48.094;-1.690;2023-05-14T04:35:40;101559.31;;;17.10;63.26
27613;BME280;15036;48.094;-1.690;2023-05-14T04:38:05;101562.16;;;17.60;61.72
27613;BME280;15036;48.094;-1.690;2023-05-14T04:40:31;101553.81;;;18.09;60.22
27613;BME280;15036;48.094;-1.690;2023-05-14T04:42:56;101548.00;;;18.35;59.28
27613;BME280;15036;48.094;-1.690;2023-05-14T04:45:22;101556.91;;;18.37;58.93
27613;BME280;15036;48.094;-1.690;2023-05-14T04:47:47;101548.31;;;18.27;58.96
27613;BME280;15036;48.094;-1.690;2023-05-14T04:50:13;101546.81;;;17.88;60.15
27613;BME280;15036;48.094;-1.690;2023-05-14T04:52:38;101555.44;;;17.74;60.50
27613;BME280;15036;48.094;-1.690;2023-05-14T04:55:04;101536.78;;;18.48;58.77
27613;BME280;15036;48.094;-1.690;2023-05-14T04:57:30;101547.66;;;17.89;59.98
27613;BME280;15036;48.094;-1.690;2023-05-14T04:59:55;101554.91;;;17.03;62.69
27613;BME280;15036;48.094;-1.690;2023-05-14T05:02:21;101555.78;;;17.59;61.73
27613;BME280;15036;48.094;-1.690;2023-05-14T05:04:46;101556.97;;;17.70;60.86
27613;BME280;15036;48.094;-1.690;2023-05-14T05:07:11;101557.81;;;17.70;61.44
27613;BME280;15036;48.094;-1.690;2023-05-14T05:09:37;101557.31;;;17.55;61.39
27613;BME280;15036;48.094;-1.690;2023-05-14T05:12:03;101565.53;;;17.86;60.69
27613;BME280;15036;48.094;-1.690;2023-05-14T05:14:29;101557.72;;;17.59;61.50
27613;BME280;15036;48.094;-1.690;2023-05-14T05:16:54;101558.63;;;17.46;61.96
27613;BME280;15036;48.094;-1.690;2023-05-14T05:19:19;101557.22;;;17.68;61.81
27613;BME280;15036;48.094;-1.690;2023-05-14T05:21:45;101544.44;;;17.11;62.68
27613;BME280;15036;48.094;-1.690;2023-05-14T05:24:10;101546.22;;;17.86;61.19
27613;BME280;15036;48.094;-1.690;2023-05-14T05:26:37;101552.72;;;17.92;60.72
27613;BME280;15036;48.094;-1.690;2023-05-14T05:29:03;101552.31;;;17.39;61.91
27613;BME280;15036;48.094;-1.690;2023-05-14T05:31:29;101547.94;;;16.94;63.57
27613;BME280;15036;48.094;-1.690;2023-05-14T05:33:55;101551.66;;;17.12;63.08
27613;BME280;15036;48.094;-1.690;2023-05-14T05:36:20;101536.63;;;18.07;60.37
27613;BME280;15036;48.094;-1.690;2023-05-14T05:38:45;101549.03;;;17.80;60.49
27613;BME280;15036;48.094;-1.690;2023-05-14T05:41:11;101559.22;;;17.23;62.71
27613;BME280;15036;48.094;-1.690;2023-05-14T05:43:36;101563.59;;;17.06;63.75
27613;BME280;15036;48.094;-1.690;2023-05-14T05:46:02;101571.63;;;16.70;64.96
27613;BME280;15036;48.094;-1.690;2023-05-14T05:48:27;101565.56;;;16.99;63.67
27613;BME280;15036;48.094;-1.690;2023-05-14T05:50:52;101575.81;;;17.55;62.29
27613;BME280;15036;48.094;-1.690;2023-05-14T05:53:18;101572.94;;;17.68;61.66
27613;BME280;15036;48.094;-1.690;2023-05-14T05:55:43;101570.28;;;18.22;59.64
27613;BME280;15036;48.094;-1.690;2023-05-14T05:58:09;101580.81;;;17.89;60.60
27613;BME280;15036;48.094;-1.690;2023-05-14T06:00:34;101584.22;;;17.66;61.70
27613;BME280;15036;48.094;-1.690;2023-05-14T06:03:00;101590.59;;;17.67;61.37
27613;BME280;15036;48.094;-1.690;2023-05-14T06:05:25;101586.78;;;17.86;61.09
27613;BME280;15036;48.094;-1.690;2023-05-14T06:07:51;101581.50;;;17.84;61.03
27613;BME280;15036;48.094;-1.690;2023-05-14T06:10:18;101595.28;;;17.60;61.95
27613;BME280;15036;48.094;-1.690;2023-05-14T06:12:43;101582.75;;;18.06;60.53
27613;BME280;15036;48.094;-1.690;2023-05-14T06:15:09;101597.66;;;17.81;61.05
27613;BME280;15036;48.094;-1.690;2023-05-14T06:17:36;101595.66;;;17.94;61.12
27613;BME280;15036;48.094;-1.690;2023-05-14T06:20:02;101585.44;;;18.13;60.20
27613;BME280;15036;48.094;-1.690;2023-05-14T06:22:29;101580.03;;;18.79;58.63
27613;BME280;15036;48.094;-1.690;2023-05-14T06:24:55;101581.56;;;18.93;58.36
27613;BME280;15036;48.094;-1.690;2023-05-14T06:27:20;101573.81;;;18.83;58.28
27613;BME280;15036;48.094;-1.690;2023-05-14T06:29:45;101574.97;;;17.97;60.51
27613;BME280;15036;48.094;-1.690;2023-05-14T06:32:11;101577.09;;;18.19;60.00
27613;BME280;15036;48.094;-1.690;2023-05-14T06:34:39;101580.81;;;18.32;59.34
27613;BME280;15036;48.094;-1.690;2023-05-14T06:37:05;101570.13;;;18.71;58.49
27613;BME280;15036;48.094;-1.690;2023-05-14T06:39:31;101583.16;;;18.82;58.53
27613;BME280;15036;48.094;-1.690;2023-05-14T06:41:58;101588.28;;;18.49;59.07
27613;BME280;15036;48.094;-1.690;2023-05-14T06:44:23;101585.75;;;18.48;59.37
27613;BME280;15036;48.094;-1.690;2023-05-14T06:46:49;101579.50;;;18.34;59.36
27613;BME280;15036;48.094;-1.690;2023-05-14T06:49:15;101572.66;;;18.73;58.17
27613;BME280;15036;48.094;-1.690;2023-05-14T06:51:40;101576.06;;;19.04;58.09
27613;BME280;15036;48.094;-1.690;2023-05-14T06:54:06;101581.78;;;18.91;58.06
27613;BME280;15036;48.094;-1.690;2023-05-14T06:56:31;101582.53;;;19.28;57.09
27613;BME280;15036;48.094;-1.690;2023-05-14T06:58:57;101588.53;;;19.55;56.31
27613;BME280;15036;48.094;-1.690;2023-05-14T07:01:23;101590.53;;;19.36;57.00
27613;BME280;15036;48.094;-1.690;2023-05-14T07:03:48;101584.38;;;19.04;57.06
27613;BME280;15036;48.094;-1.690;2023-05-14T07:06:15;101580.09;;;18.90;58.11
27613;BME280;15036;48.094;-1.690;2023-05-14T07:08:42;101595.59;;;18.19;59.31
27613;BME280;15036;48.094;-1.690;2023-05-14T07:11:10;101595.50;;;18.07;59.96
27613;BME280;15036;48.094;-1.690;2023-05-14T07:13:36;101591.91;;;18.50;59.03
27613;BME280;15036;48.094;-1.690;2023-05-14T07:16:01;101592.81;;;18.44;59.18
27613;BME280;15036;48.094;-1.690;2023-05-14T07:18:26;101580.34;;;18.71;58.70
27613;BME280;15036;48.094;-1.690;2023-05-14T07:20:52;101590.63;;;19.12;57.59
27613;BME280;15036;48.094;-1.690;2023-05-14T07:23:18;101583.09;;;19.19;56.81
27613;BME280;15036;48.094;-1.690;2023-05-14T07:25:43;101578.91;;;19.69;55.88
27613;BME280;15036;48.094;-1.690;2023-05-14T07:28:08;101569.94;;;18.84;57.32
27613;BME280;15036;48.094;-1.690;2023-05-14T07:30:34;101578.28;;;19.67;56.11
27613;BME280;15036;48.094;-1.690;2023-05-14T07:32:59;101573.50;;;19.62;55.95
27613;BME280;15036;48.094;-1.690;2023-05-14T07:35:24;101575.03;;;19.47;56.38
27613;BME280;15036;48.094;-1.690;2023-05-14T07:37:50;101568.91;;;18.67;58.50
27613;BME280;15036;48.094;-1.690;2023-05-14T07:40:15;101585.03;;;19.30;56.69
27613;BME280;15036;48.094;-1.690;2023-05-14T07:42:41;101583.22;;;19.53;56.25
27613;BME280;15036;48.094;-1.690;2023-05-14T07:45:07;101597.97;;;19.06;57.39
27613;BME280;15036;48.094;-1.690;2023-05-14T07:47:33;101587.00;;;19.82;55.94
27613;BME280;15036;48.094;-1.690;2023-05-14T07:49:59;101583.72;;;19.62;56.37
27613;BME280;15036;48.094;-1.690;2023-05-14T07:52:25;101599.31;;;18.85;57.95
27613;BME280;15036;48.094;-1.690;2023-05-14T07:54:50;101592.75;;;18.98;57.93
27613;BME280;15036;48.094;-1.690;2023-05-14T07:57:17;101599.81;;;19.42;56.70
27613;BME280;15036;48.094;-1.690;2023-05-14T07:59:42;101594.81;;;19.73;56.17
27613;BME280;15036;48.094;-1.690;2023-05-14T08:02:08;101604.63;;;19.35;56.77
27613;BME280;15036;48.094;-1.690;2023-05-14T08:04:37;101599.50;;;19.61;56.39
27613;BME280;15036;48.094;-1.690;2023-05-14T08:07:03;101606.41;;;20.17;55.32
27613;BME280;15036;48.094;-1.690;2023-05-14T08:09:29;101600.78;;;19.47;56.28
27613;BME280;15036;48.094;-1.690;2023-05-14T08:11:55;101594.38;;;20.00;55.43
27613;BME280;15036;48.094;-1.690;2023-05-14T08:14:20;101593.25;;;20.01;55.49
27613;BME280;15036;48.094;-1.690;2023-05-14T08:16:46;101587.50;;;19.91;55.84
27613;BME280;15036;48.094;-1.690;2023-05-14T08:19:12;101599.56;;;20.08;55.40
27613;BME280;15036;48.094;-1.690;2023-05-14T08:21:37;101595.81;;;19.91;55.80
27613;BME280;15036;48.094;-1.690;2023-05-14T08:24:03;101591.69;;;20.05;55.14
27613;BME280;15036;48.094;-1.690;2023-05-14T08:26:28;101592.28;;;19.72;56.19
27613;BME280;15036;48.094;-1.690;2023-05-14T08:28:53;101589.59;;;20.81;53.37
27613;BME280;15036;48.094;-1.690;2023-05-14T08:31:19;101590.84;;;20.50;54.24
27613;BME280;15036;48.094;-1.690;2023-05-14T08:33:44;101594.34;;;20.11;55.17
27613;BME280;15036;48.094;-1.690;2023-05-14T08:36:10;101582.47;;;20.22;54.95
27613;BME280;15036;48.094;-1.690;2023-05-14T08:38:35;101583.13;;;20.52;54.00
27613;BME280;15036;48.094;-1.690;2023-05-14T08:41:02;101582.06;;;20.53;54.63
27613;BME280;15036;48.094;-1.690;2023-05-14T08:46:21;101579.06;;;20.32;54.49
27613;BME280;15036;48.094;-1.690;2023-05-14T08:48:55;101572.19;;;20.86;53.64
27613;BME280;15036;48.094;-1.690;2023-05-14T08:51:21;101580.50;;;20.46;54.29
27613;BME280;15036;48.094;-1.690;2023-05-14T08:53:47;101581.78;;;20.66;53.50
27613;BME280;15036;48.094;-1.690;2023-05-14T08:56:15;101584.50;;;20.27;54.38
27613;BME280;15036;48.094;-1.690;2023-05-14T08:58:42;101577.41;;;20.19;54.58
27613;BME280;15036;48.094;-1.690;2023-05-14T09:01:07;101583.16;;;20.41;54.11
27613;BME280;15036;48.094;-1.690;2023-05-14T09:03:34;101577.06;;;20.67;53.33
27613;BME280;15036;48.094;-1.690;2023-05-14T09:06:01;101585.94;;;20.41;54.19
27613;BME280;15036;48.094;-1.690;2023-05-14T09:08:27;101577.94;;;21.07;52.02
27613;BME280;15036;48.094;-1.690;2023-05-14T09:10:52;101581.00;;;21.22;51.69
27613;BME280;15036;48.094;-1.690;2023-05-14T09:13:17;101586.75;;;21.04;52.10
27613;BME280;15036;48.094;-1.690;2023-05-14T09:15:45;101580.81;;;21.01;52.16
27613;BME280;15036;48.094;-1.690;2023-05-14T09:18:10;101582.19;;;20.87;51.92
27613;BME280;15036;48.094;-1.690;2023-05-14T09:20:37;101587.38;;;20.43;52.90
27613;BME280;15036;48.094;-1.690;2023-05-14T09:23:02;101583.81;;;21.39;51.29
27613;BME280;15036;48.094;-1.690;2023-05-14T09:25:31;101579.63;;;21.53;51.15
27613;BME280;15036;48.094;-1.690;2023-05-14T09:27:57;101584.63;;;21.39;50.86
27613;BME280;15036;48.094;-1.690;2023-05-14T09:30:23;101577.94;;;20.96;51.69
27613;BME280;15036;48.094;-1.690;2023-05-14T09:32:52;101571.34;;;21.41;50.41
27613;BME280;15036;48.094;-1.690;2023-05-14T09:35:21;101579.34;;;21.38;50.37
27613;BME280;15036;48.094;-1.690;2023-05-14T09:37:49;101568.06;;;21.44;50.05
27613;BME280;15036;48.094;-1.690;2023-05-14T09:40:16;101569.94;;;22.22;48.85
27613;BME280;15036;48.094;-1.690;2023-05-14T09:42:42;101572.91;;;22.37;48.12
27613;BME280;15036;48.094;-1.690;2023-05-14T09:45:08;101572.28;;;21.80;49.59
27613;BME280;15036;48.094;-1.690;2023-05-14T09:47:34;101569.53;;;22.95;47.13
27613;BME280;15036;48.094;-1.690;2023-05-14T09:50:00;101562.44;;;23.09;46.92
27613;BME280;15036;48.094;-1.690;2023-05-14T09:52:26;101567.78;;;23.37;46.06
27613;BME280;15036;48.094;-1.690;2023-05-14T09:54:51;101568.38;;;23.39;45.84
27613;BME280;15036;48.094;-1.690;2023-05-14T09:57:18;101567.44;;;23.34;45.47
27613;BME280;15036;48.094;-1.690;2023-05-14T09:59:43;101572.34;;;23.48;45.11
27613;BME280;15036;48.094;-1.690;2023-05-14T10:02:15;101569.25;;;23.45;44.86
27613;BME280;15036;48.094;-1.690;2023-05-14T10:04:43;101565.03;;;22.51;47.45
27613;BME280;15036;48.094;-1.690;2023-05-14T10:07:10;101561.22;;;23.00;46.30
27613;BME280;15036;48.094;-1.690;2023-05-14T10:09:39;101568.00;;;23.09;45.77
27613;BME280;15036;48.094;-1.690;2023-05-14T10:12:07;101564.53;;;22.97;46.23
27613;BME280;15036;48.094;-1.690;2023-05-14T10:14:41;101560.22;;;23.33;45.74
27613;BME280;15036;48.094;-1.690;2023-05-14T10:17:08;101560.88;;;23.76;45.01
27613;BME280;15036;48.094;-1.690;2023-05-14T10:19:43;101549.34;;;23.99;44.84
27613;BME280;15036;48.094;-1.690;2023-05-14T10:22:12;101553.06;;;24.10;43.94
27613;BME280;15036;48.094;-1.690;2023-05-14T10:24:39;101558.34;;;24.58;43.91
27613;BME280;15036;48.094;-1.690;2023-05-14T10:27:05;101545.94;;;24.86;42.74
27613;BME280;15036;48.094;-1.690;2023-05-14T10:29:36;101555.84;;;24.57;42.63
27613;BME280;15036;48.094;-1.690;2023-05-14T10:32:06;101556.81;;;24.31;43.47
27613;BME280;15036;48.094;-1.690;2023-05-14T10:36:59;101551.03;;;25.09;41.85
27613;BME280;15036;48.094;-1.690;2023-05-14T10:44:56;101549.91;;;23.65;45.34
27613;BME280;15036;48.094;-1.690;2023-05-14T10:47:28;101549.69;;;23.71;45.97
27613;BME280;15036;48.094;-1.690;2023-05-14T10:49:56;101548.97;;;23.86;45.87
27613;BME280;15036;48.094;-1.690;2023-05-14T10:52:23;101555.19;;;23.98;44.91
27613;BME280;15036;48.094;-1.690;2023-05-14T10:54:57;101542.25;;;23.82;44.10
27613;BME280;15036;48.094;-1.690;2023-05-14T10:57:25;101539.19;;;24.20;43.46
27613;BME280;15036;48.094;-1.690;2023-05-14T10:59:52;101531.72;;;24.87;42.55
27613;BME280;15036;48.094;-1.690;2023-05-14T11:05:01;101544.50;;;24.22;44.62
27613;BME280;15036;48.094;-1.690;2023-05-14T11:07:30;101535.16;;;24.53;43.97
27613;BME280;15036;48.094;-1.690;2023-05-14T11:10:00;101531.28;;;24.54;44.10
27613;BME280;15036;48.094;-1.690;2023-05-14T11:12:26;101527.47;;;24.75;43.62
27613;BME280;15036;48.094;-1.690;2023-05-14T11:14:52;101526.91;;;24.21;43.99
27613;BME280;15036;48.094;-1.690;2023-05-14T11:17:18;101529.63;;;24.58;42.96
27613;BME280;15036;48.094;-1.690;2023-05-14T11:19:43;101524.69;;;24.75;42.08
27613;BME280;15036;48.094;-1.690;2023-05-14T11:22:10;101518.41;;;25.70;40.79
27613;BME280;15036;48.094;-1.690;2023-05-14T11:24:38;101526.53;;;26.07;40.50
27613;BME280;15036;48.094;-1.690;2023-05-14T11:27:04;101524.88;;;24.68;43.09
27613;BME280;15036;48.094;-1.690;2023-05-14T11:29:29;101518.84;;;23.24;45.72
27613;BME280;15036;48.094;-1.690;2023-05-14T11:31:55;101526.44;;;23.97;44.58
27613;BME280;15036;48.094;-1.690;2023-05-14T11:34:20;101523.47;;;24.56;43.32
27613;BME280;15036;48.094;-1.690;2023-05-14T11:36:46;101524.75;;;25.05;42.86
27613;BME280;15036;48.094;-1.690;2023-05-14T11:39:17;101512.81;;;25.45;40.73
27613;BME280;15036;48.094;-1.690;2023-05-14T11:41:44;101515.66;;;24.63;43.13
27613;BME280;15036;48.094;-1.690;2023-05-14T11:44:10;101515.72;;;23.79;44.61
27613;BME280;15036;48.094;-1.690;2023-05-14T11:46:35;101513.69;;;23.65;45.95
27613;BME280;15036;48.094;-1.690;2023-05-14T11:49:03;101526.94;;;24.78;43.03
27613;BME280;15036;48.094;-1.690;2023-05-14T11:51:28;101513.19;;;24.15;44.93
27613;BME280;15036;48.094;-1.690;2023-05-14T11:53:54;101509.00;;;23.75;45.45
27613;BME280;15036;48.094;-1.690;2023-05-14T11:56:20;101513.16;;;24.09;44.84
27613;BME280;15036;48.094;-1.690;2023-05-14T11:58:47;101515.47;;;24.84;43.43
27613;BME280;15036;48.094;-1.690;2023-05-14T12:01:14;101513.28;;;23.93;44.70
27613;BME280;15036;48.094;-1.690;2023-05-14T12:03:40;101514.13;;;24.30;43.33
27613;BME280;15036;48.094;-1.690;2023-05-14T12:06:06;101505.66;;;24.72;42.42
27613;BME280;15036;48.094;-1.690;2023-05-14T12:08:35;101513.66;;;25.65;40.08
27613;BME280;15036;48.094;-1.690;2023-05-14T12:11:02;101504.34;;;25.00;41.96
27613;BME280;15036;48.094;-1.690;2023-05-14T12:13:31;101511.97;;;25.44;41.90
27613;BME280;15036;48.094;-1.690;2023-05-14T12:15:58;101514.16;;;25.12;41.30
27613;BME280;15036;48.094;-1.690;2023-05-14T12:18:26;101506.13;;;25.41;40.46
27613;BME280;15036;48.094;-1.690;2023-05-14T12:20:52;101501.66;;;25.55;40.92
27613;BME280;15036;48.094;-1.690;2023-05-14T12:23:44;101501.59;;;25.10;41.04
27613;BME280;15036;48.094;-1.690;2023-05-14T12:26:09;101509.38;;;23.52;43.88
27613;BME280;15036;48.094;-1.690;2023-05-14T12:28:38;101502.88;;;24.82;43.06
27613;BME280;15036;48.094;-1.690;2023-05-14T12:31:07;101498.56;;;25.56;41.85
27613;BME280;15036;48.094;-1.690;2023-05-14T12:33:32;101490.84;;;26.37;39.21
27613;BME280;15036;48.094;-1.690;2023-05-14T12:35:58;101503.31;;;25.56;40.19
27613;BME280;15036;48.094;-1.690;2023-05-14T12:38:27;101483.31;;;26.33;39.62
27613;BME280;15036;48.094;-1.690;2023-05-14T12:40:52;101495.19;;;25.74;40.97
27613;BME280;15036;48.094;-1.690;2023-05-14T12:43:18;101487.31;;;25.97;39.66
27613;BME280;15036;48.094;-1.690;2023-05-14T12:45:43;101481.97;;;26.15;37.64
27613;BME280;15036;48.094;-1.690;2023-05-14T12:48:09;101485.53;;;26.36;38.05
27613;BME280;15036;48.094;-1.690;2023-05-14T12:50:35;101482.44;;;26.96;37.99
27613;BME280;15036;48.094;-1.690;2023-05-14T12:53:00;101472.75;;;27.85;36.01
27613;BME280;15036;48.094;-1.690;2023-05-14T12:55:26;101478.34;;;27.22;36.71